Langley AFB, Virginia
Current Conditions -  °F | °C
As of 4:35 PM on Wednesday 26 Nov 2014 (Local Time) from KLFI Reporting Station
Haze Haze  
Wind Chill: 32°   Ceiling: 1100
Heat Index: 41°   Visibility: 5mi
Dew Point: 41°   Wind: 17mph
Humidity: 100%   Direction: 300°WNW
Pressure: 29.89"   Gusts: NA
Location:  37.0868°N, 76.3631°W
Report Text: KLFI 262135Z AUTO 30015KT 5SM BR OVC011 05/05 A2989 RMK AO2 DZE2131 $
Loading
Personal Weather Stations






























Interactive Weather Map New forecast layout! Learn more

10-Day Weather Forecast

Advertisements
Track Severe Weather on mobile